Juergen K — PBKV — position and weather

sailwx.info

Track history (hours):
 
Tides and Currents Weather Stations Pressure Air Temp Water Temp Dewpoint Dewpoint Depression Visibility Wind Speed Wind Dir Waves Ship Positions

Juergen K

Last reported at 2017-Oct-20 01:46 UTC. Time now 2017-Oct-22 06:44 UTC.
Position N 39°18' W 009°43'.

Length 89 m; draft 4.7 m.

Type: Cargo ship. MMSI: 244329000.

Date/timePositionNaut miles runAvg speedWind from/ knotsBaromVisibWave heightAir tempDewpointWater temp
2017-Oct-20 01:46N 39°18' W 009°43'2 9.4
2017-Oct-20 01:30N 39°16' W 009°43'5 9.2
2017-Oct-20 01:00N 39°11' W 009°42'5 9.1
2017-Oct-20 00:30N 39°07' W 009°43'5 9.3
2017-Oct-20 00:01N 39°02' W 009°43'5 9.6
2017-Oct-19 23:30N 38°57' W 009°42'5 9.4
2017-Oct-19 23:00N 38°53' W 009°42'5 9.2
2017-Oct-19 22:30N 38°48' W 009°42'5 9.5
2017-Oct-19 22:00N 38°43' W 009°41'4 8.9
2017-Oct-19 21:30N 38°39' W 009°40'4 8.9
2017-Oct-19 21:01N 38°36' W 009°36'4 8.8
2017-Oct-19 20:31N 38°34' W 009°31'4 9.0
2017-Oct-19 20:01N 38°31' W 009°27'5 9.0
2017-Oct-19 19:30N 38°28' W 009°22'5 9.1
2017-Oct-19 19:00N 38°25' W 009°18'4 8.8
2017-Oct-19 18:31N 38°23' W 009°13'5 9.7
2017-Oct-19 18:00N 38°24' W 009°07'510.0
2017-Oct-19 17:30N 38°26' W 009°01'4 8.1
2017-Oct-19 17:00N 38°28' W 008°57'4 8.5
2017-Oct-19 16:30N 38°31' W 008°53'0 0.0
2017-Oct-19 15:57N 38°31' W 008°53'0 0.0
2017-Oct-19 15:27N 38°31' W 008°53'0 0.0
2017-Oct-19 15:00N 38°31' W 008°53'0 0.0
2017-Oct-19 14:24N 38°31' W 008°53'0 0.0
2017-Oct-19 12:42N 38°31' W 008°53'0 0.0
2017-Oct-19 12:30N 38°31' W 008°53'0 0.0
2017-Oct-19 11:57N 38°31' W 008°53'0 0.0
2017-Oct-19 11:30N 38°31' W 008°53'0 0.0
2017-Oct-19 10:57N 38°31' W 008°53'0 0.0
2017-Oct-19 10:30N 38°31' W 008°53'0 0.0
2017-Oct-19 10:00N 38°31' W 008°53'0 0.0
2017-Oct-19 07:09N 38°31' W 008°53'0 0.0
2017-Oct-18 23:21N 38°31' W 008°53'2 4.6
2017-Oct-18 22:56N 38°30' W 008°55'410.5
2017-Oct-18 22:30N 38°27' W 008°59'4 8.4
2017-Oct-18 22:00N 38°23' W 009°00'5 9.8
2017-Oct-18 21:30N 38°18' W 009°01'5 9.7
2017-Oct-18 21:00N 38°13' W 009°02'5 9.2
2017-Oct-18 20:30N 38°09' W 009°04'4 8.9
2017-Oct-18 20:00N 38°04' W 009°05'5 9.0
2017-Oct-18 19:30N 37°60' W 009°06'5 9.2
2017-Oct-18 19:00N 37°55' W 009°07'5 9.7
2017-Oct-18 18:30N 37°51' W 009°08'5 9.0
2017-Oct-18 18:00N 37°46' W 009°09'4 8.5
2017-Oct-18 17:30N 37°42' W 009°10'5 8.8
2017-Oct-18 16:58N 37°37' W 009°11'204 7.3
2017-Oct-17 12:53N 35°59' W 005°27'3 7.7
2017-Oct-17 12:30N 35°59' W 005°24'4 8.3
2017-Oct-17 12:00N 35°56' W 005°20'3 5.1
2017-Oct-17 11:29N 35°54' W 005°18'0 0.0
2017-Oct-17 10:59N 35°54' W 005°18'0 0.0
2017-Oct-17 10:29N 35°54' W 005°18'0 0.0
2017-Oct-17 09:59N 35°54' W 005°18'0 0.0
2017-Oct-17 09:29N 35°54' W 005°18'0 0.0
2017-Oct-17 08:59N 35°54' W 005°18'0 0.0
2017-Oct-17 08:29N 35°54' W 005°18'0 0.0
2017-Oct-17 07:59N 35°54' W 005°18'1 1.5
2017-Oct-17 07:30N 35°54' W 005°18'1 2.9
2017-Oct-17 07:01N 35°56' W 005°19'1 1.0
2017-Oct-17 06:31N 35°56' W 005°18'5 9.3
2017-Oct-17 05:57N 35°56' W 005°12'4 9.3
2017-Oct-17 05:30N 35°57' W 005°07'5 9.0
2017-Oct-17 04:59N 35°58' W 005°01'268 8.9
2017-Oct-15 22:44N 37°33' E 000°12'12 8.3
2017-Oct-15 21:18N 37°38' E 000°25'  
2017-Oct-10 23:53N 43°26' E 004°54'0 0.0
2017-Oct-10 23:29N 43°26' E 004°54'0 0.0
2017-Oct-10 22:53N 43°26' E 004°54'0 0.0
2017-Oct-10 22:29N 43°26' E 004°54'0 0.0
2017-Oct-10 21:59N 43°26' E 004°54'0 0.0
2017-Oct-10 21:29N 43°26' E 004°54'0 0.0
2017-Oct-10 20:32N 43°26' E 004°54'0 0.1
2017-Oct-10 20:26N 43°26' E 004°54'0 0.0
2017-Oct-10 19:35N 43°26' E 004°54'0 0.0
2017-Oct-10 19:26N 43°26' E 004°54'0 0.0
2017-Oct-10 18:59N 43°26' E 004°54'0 0.0
2017-Oct-10 18:29N 43°26' E 004°54'0 0.0
2017-Oct-10 17:59N 43°26' E 004°54'0 0.0
2017-Oct-10 17:29N 43°26' E 004°54'0 0.0
2017-Oct-10 16:59N 43°26' E 004°54'0 0.0
2017-Oct-10 16:26N 43°26' E 004°54'0 0.0
2017-Oct-10 15:59N 43°26' E 004°54'0 0.0
2017-Oct-10 15:29N 43°26' E 004°54'0 0.0
2017-Oct-10 14:59N 43°26' E 004°54'0 0.0
2017-Oct-10 13:59N 43°26' E 004°54'0 0.3
2017-Oct-10 13:29N 43°26' E 004°53'0 0.1
2017-Oct-10 12:59N 43°26' E 004°53'0 0.0
2017-Oct-10 12:29N 43°26' E 004°53'0 0.0
2017-Oct-10 11:56N 43°26' E 004°53'0 0.0
2017-Oct-10 11:26N 43°26' E 004°53'0 0.0
2017-Oct-10 10:59N 43°26' E 004°53'0 0.0
2017-Oct-10 10:29N 43°26' E 004°53'0 0.0
2017-Oct-10 09:59N 43°26' E 004°53'0 0.0
2017-Oct-10 09:29N 43°26' E 004°53'0 0.0
2017-Oct-10 08:59N 43°26' E 004°53'0 0.0
2017-Oct-10 08:29N 43°26' E 004°53'0 0.0
2017-Oct-10 07:59N 43°26' E 004°53'0 0.0
2017-Oct-10 07:26N 43°26' E 004°53'0 0.0
2017-Oct-10 06:59N 43°26' E 004°53'0 0.0
2017-Oct-10 06:29N 43°26' E 004°53'0 0.0
2017-Oct-10 05:56N 43°26' E 004°53'0 0.0
2017-Oct-10 05:29N 43°26' E 004°53'0 0.0
2017-Oct-10 04:59N 43°26' E 004°53'0 0.0
2017-Oct-10 04:29N 43°26' E 004°53'0 0.0
2017-Oct-10 03:53N 43°26' E 004°53'0 0.0
2017-Oct-10 03:29N 43°26' E 004°53'0 0.0
2017-Oct-10 02:59N 43°26' E 004°53'0 0.0
2017-Oct-10 02:29N 43°26' E 004°53'0 0.0
2017-Oct-10 01:59N 43°26' E 004°53'  
Track history (hours):
 
Tides and Currents Weather Stations Pressure Air Temp Water Temp Dewpoint Dewpoint Depression Visibility Wind Speed Wind Dir Waves Ship Positions

Juergen K

Last reported at 2017-Oct-20 01:46 UTC. Time now 2017-Oct-22 06:44 UTC.
Position N 39°18' W 009°43'.

Length 89 m; draft 4.7 m.

Type: Cargo ship. MMSI: 244329000.

Date/timePositionNaut miles runAvg speedWind from/ knotsBaromVisibWave heightAir tempDewpointWater temp
2017-Oct-20 01:46N 39°18' W 009°43'2 9.4
2017-Oct-20 01:30N 39°16' W 009°43'5 9.2
2017-Oct-20 01:00N 39°11' W 009°42'5 9.1
2017-Oct-20 00:30N 39°07' W 009°43'5 9.3
2017-Oct-20 00:01N 39°02' W 009°43'5 9.6
2017-Oct-19 23:30N 38°57' W 009°42'5 9.4
2017-Oct-19 23:00N 38°53' W 009°42'5 9.2
2017-Oct-19 22:30N 38°48' W 009°42'5 9.5
2017-Oct-19 22:00N 38°43' W 009°41'4 8.9
2017-Oct-19 21:30N 38°39' W 009°40'4 8.9
2017-Oct-19 21:01N 38°36' W 009°36'4 8.8
2017-Oct-19 20:31N 38°34' W 009°31'4 9.0
2017-Oct-19 20:01N 38°31' W 009°27'5 9.0
2017-Oct-19 19:30N 38°28' W 009°22'5 9.1
2017-Oct-19 19:00N 38°25' W 009°18'4 8.8
2017-Oct-19 18:31N 38°23' W 009°13'5 9.7
2017-Oct-19 18:00N 38°24' W 009°07'510.0
2017-Oct-19 17:30N 38°26' W 009°01'4 8.1
2017-Oct-19 17:00N 38°28' W 008°57'4 8.5
2017-Oct-19 16:30N 38°31' W 008°53'0 0.0
2017-Oct-19 15:57N 38°31' W 008°53'0 0.0
2017-Oct-19 15:27N 38°31' W 008°53'0 0.0
2017-Oct-19 15:00N 38°31' W 008°53'0 0.0
2017-Oct-19 14:24N 38°31' W 008°53'0 0.0
2017-Oct-19 12:42N 38°31' W 008°53'0 0.0
2017-Oct-19 12:30N 38°31' W 008°53'0 0.0
2017-Oct-19 11:57N 38°31' W 008°53'0 0.0
2017-Oct-19 11:30N 38°31' W 008°53'0 0.0
2017-Oct-19 10:57N 38°31' W 008°53'0 0.0
2017-Oct-19 10:30N 38°31' W 008°53'0 0.0
2017-Oct-19 10:00N 38°31' W 008°53'0 0.0
2017-Oct-19 07:09N 38°31' W 008°53'0 0.0
2017-Oct-18 23:21N 38°31' W 008°53'2 4.6
2017-Oct-18 22:56N 38°30' W 008°55'410.5
2017-Oct-18 22:30N 38°27' W 008°59'4 8.4
2017-Oct-18 22:00N 38°23' W 009°00'5 9.8
2017-Oct-18 21:30N 38°18' W 009°01'5 9.7
2017-Oct-18 21:00N 38°13' W 009°02'5 9.2
2017-Oct-18 20:30N 38°09' W 009°04'4 8.9
2017-Oct-18 20:00N 38°04' W 009°05'5 9.0
2017-Oct-18 19:30N 37°60' W 009°06'5 9.2
2017-Oct-18 19:00N 37°55' W 009°07'5 9.7
2017-Oct-18 18:30N 37°51' W 009°08'5 9.0
2017-Oct-18 18:00N 37°46' W 009°09'4 8.5
2017-Oct-18 17:30N 37°42' W 009°10'5 8.8
2017-Oct-18 16:58N 37°37' W 009°11'204 7.3
2017-Oct-17 12:53N 35°59' W 005°27'3 7.7
2017-Oct-17 12:30N 35°59' W 005°24'4 8.3
2017-Oct-17 12:00N 35°56' W 005°20'3 5.1
2017-Oct-17 11:29N 35°54' W 005°18'0 0.0
2017-Oct-17 10:59N 35°54' W 005°18'0 0.0
2017-Oct-17 10:29N 35°54' W 005°18'0 0.0
2017-Oct-17 09:59N 35°54' W 005°18'0 0.0
2017-Oct-17 09:29N 35°54' W 005°18'0 0.0
2017-Oct-17 08:59N 35°54' W 005°18'0 0.0
2017-Oct-17 08:29N 35°54' W 005°18'0 0.0
2017-Oct-17 07:59N 35°54' W 005°18'1 1.5
2017-Oct-17 07:30N 35°54' W 005°18'1 2.9
2017-Oct-17 07:01N 35°56' W 005°19'1 1.0
2017-Oct-17 06:31N 35°56' W 005°18'5 9.3
2017-Oct-17 05:57N 35°56' W 005°12'4 9.3
2017-Oct-17 05:30N 35°57' W 005°07'5 9.0
2017-Oct-17 04:59N 35°58' W 005°01'268 8.9
2017-Oct-15 22:44N 37°33' E 000°12'12 8.3
2017-Oct-15 21:18N 37°38' E 000°25'  
2017-Oct-10 23:53N 43°26' E 004°54'0 0.0
2017-Oct-10 23:29N 43°26' E 004°54'0 0.0
2017-Oct-10 22:53N 43°26' E 004°54'0 0.0
2017-Oct-10 22:29N 43°26' E 004°54'0 0.0
2017-Oct-10 21:59N 43°26' E 004°54'0 0.0
2017-Oct-10 21:29N 43°26' E 004°54'0 0.0
2017-Oct-10 20:32N 43°26' E 004°54'0 0.1
2017-Oct-10 20:26N 43°26' E 004°54'0 0.0
2017-Oct-10 19:35N 43°26' E 004°54'0 0.0
2017-Oct-10 19:26N 43°26' E 004°54'0 0.0
2017-Oct-10 18:59N 43°26' E 004°54'0 0.0
2017-Oct-10 18:29N 43°26' E 004°54'0 0.0
2017-Oct-10 17:59N 43°26' E 004°54'0 0.0
2017-Oct-10 17:29N 43°26' E 004°54'0 0.0
2017-Oct-10 16:59N 43°26' E 004°54'0 0.0
2017-Oct-10 16:26N 43°26' E 004°54'0 0.0
2017-Oct-10 15:59N 43°26' E 004°54'0 0.0
2017-Oct-10 15:29N 43°26' E 004°54'0 0.0
2017-Oct-10 14:59N 43°26' E 004°54'0 0.0
2017-Oct-10 13:59N 43°26' E 004°54'0 0.3
2017-Oct-10 13:29N 43°26' E 004°53'0 0.1
2017-Oct-10 12:59N 43°26' E 004°53'0 0.0
2017-Oct-10 12:29N 43°26' E 004°53'0 0.0
2017-Oct-10 11:56N 43°26' E 004°53'0 0.0
2017-Oct-10 11:26N 43°26' E 004°53'0 0.0
2017-Oct-10 10:59N 43°26' E 004°53'0 0.0
2017-Oct-10 10:29N 43°26' E 004°53'0 0.0
2017-Oct-10 09:59N 43°26' E 004°53'0 0.0
2017-Oct-10 09:29N 43°26' E 004°53'0 0.0
2017-Oct-10 08:59N 43°26' E 004°53'0 0.0
2017-Oct-10 08:29N 43°26' E 004°53'0 0.0
2017-Oct-10 07:59N 43°26' E 004°53'0 0.0
2017-Oct-10 07:26N 43°26' E 004°53'0 0.0
2017-Oct-10 06:59N 43°26' E 004°53'0 0.0
2017-Oct-10 06:29N 43°26' E 004°53'0 0.0
2017-Oct-10 05:56N 43°26' E 004°53'0 0.0
2017-Oct-10 05:29N 43°26' E 004°53'0 0.0
2017-Oct-10 04:59N 43°26' E 004°53'0 0.0
2017-Oct-10 04:29N 43°26' E 004°53'0 0.0
2017-Oct-10 03:53N 43°26' E 004°53'0 0.0
2017-Oct-10 03:29N 43°26' E 004°53'0 0.0
2017-Oct-10 02:59N 43°26' E 004°53'0 0.0
2017-Oct-10 02:29N 43°26' E 004°53'0 0.0
2017-Oct-10 01:59N 43°26' E 004°53'  

Dump ship's entire track history